createdAt,value
2023-05-05T19:15:24.753Z,88.52
2023-05-05T19:16:24.544Z,87.75
2023-05-05T19:17:24.592Z,87.65
2023-05-05T19:18:24.540Z,88.06
2023-05-05T19:19:24.502Z,87.45
2023-05-05T19:20:24.527Z,87.04
2023-05-05T19:21:24.512Z,86.39
2023-05-05T19:22:24.538Z,87.85
2023-05-05T19:23:24.469Z,88.01
2023-05-05T19:24:24.489Z,88.16
2023-05-05T19:25:24.469Z,87.34
2023-05-05T19:26:24.473Z,86.98
2023-05-05T19:27:24.484Z,87.49
2023-05-05T19:28:24.440Z,88.30
2023-05-05T19:29:24.454Z,87.69
2023-05-05T19:30:24.459Z,87.59
2023-05-05T19:31:24.579Z,87.99
2023-05-05T19:32:24.467Z,87.38
2023-05-05T19:33:24.453Z,88.10
2023-05-05T19:34:24.404Z,89.11
2023-05-05T19:35:24.411Z,87.85
2023-05-05T19:36:24.397Z,86.02
2023-05-05T19:37:24.439Z,83.59
2023-05-05T19:38:24.416Z,80.10
2023-05-05T19:39:24.349Z,83.71
2023-05-05T19:40:24.383Z,85.84
2023-05-05T19:41:24.365Z,85.33
2023-05-05T19:42:24.337Z,86.35
2023-05-05T19:43:24.384Z,86.05
2023-05-05T19:44:24.896Z,83.65
2023-05-05T19:45:24.324Z,85.64
2023-05-05T19:46:24.462Z,85.13
2023-05-05T19:47:24.455Z,86.45
2023-05-05T19:48:24.839Z,87.51
2023-05-05T19:49:24.317Z,87.81
2023-05-05T19:50:24.342Z,85.11
2023-05-05T19:51:24.318Z,83.45
2023-05-05T19:52:24.264Z,86.29
2023-05-05T19:53:24.299Z,87.81
2023-05-05T19:54:24.856Z,87.81
2023-05-05T19:55:28.986Z,88.62
2023-05-05T19:56:25.380Z,88.32
2023-05-05T19:57:24.927Z,89.28
2023-05-05T19:58:24.794Z,88.56
2023-05-05T19:59:24.237Z,90.09
2023-05-05T20:00:24.213Z,89.17
2023-05-05T20:01:24.293Z,89.48
2023-05-05T20:02:24.324Z,91.00
2023-05-05T20:03:24.338Z,91.71
2023-05-05T20:04:24.248Z,90.90
2023-05-05T20:05:24.200Z,90.70
2023-05-05T20:06:24.202Z,89.37
2023-05-05T20:07:24.155Z,89.13
2023-05-05T20:08:24.225Z,88.93
2023-05-05T20:09:24.202Z,87.75
2023-05-05T20:10:24.253Z,87.85
2023-05-05T20:11:24.160Z,87.29
2023-05-05T20:12:24.193Z,87.89
2023-05-05T20:13:24.192Z,87.79
2023-05-05T20:14:24.142Z,88.75
2023-05-05T20:15:24.160Z,89.15
2023-05-05T20:16:24.298Z,90.58
2023-05-05T20:17:24.137Z,90.58
2023-05-05T20:18:24.190Z,91.23
2023-05-05T20:19:24.150Z,90.52
2023-05-05T20:20:24.105Z,90.17
2023-05-05T20:21:24.106Z,89.46
2023-05-05T20:22:24.107Z,90.58
2023-05-05T20:23:24.171Z,90.78
2023-05-05T20:24:24.089Z,89.97
2023-05-05T20:25:24.212Z,90.68
2023-05-05T20:26:24.047Z,90.11
2023-05-05T20:27:25.895Z,89.91
2023-05-05T20:28:24.091Z,90.72
2023-05-05T20:29:24.033Z,90.66
2023-05-05T20:30:24.007Z,88.79
2023-05-05T20:31:24.049Z,89.40
2023-05-05T20:32:24.041Z,88.69
2023-05-05T20:33:23.977Z,87.23
2023-05-05T20:34:24.019Z,86.57
2023-05-05T20:35:24.072Z,87.84
2023-05-05T20:36:23.956Z,87.02
2023-05-05T20:37:23.997Z,86.47
2023-05-05T20:38:23.965Z,86.61
2023-05-05T20:39:23.948Z,85.76
2023-05-05T20:40:23.943Z,86.51
2023-05-05T20:41:23.944Z,86.00
2023-05-05T20:42:23.969Z,86.51
2023-05-05T20:43:23.956Z,86.92
2023-05-05T20:44:23.918Z,86.61
2023-05-05T20:45:23.923Z,86.21
2023-05-05T20:46:23.962Z,86.61
2023-05-05T20:47:23.998Z,84.84
2023-05-05T20:48:23.930Z,83.62
2023-05-05T20:49:23.929Z,85.25
2023-05-05T20:50:23.916Z,86.07
2023-05-05T20:51:23.974Z,85.05
2023-05-05T20:52:23.935Z,84.44
2023-05-05T20:53:23.861Z,83.73
2023-05-05T20:54:23.843Z,83.83
2023-05-05T20:55:23.909Z,83.59
2023-05-05T20:56:23.942Z,86.53
2023-05-05T20:57:23.849Z,84.60
2023-05-05T20:58:23.898Z,85.01
2023-05-05T20:59:23.841Z,86.02
2023-05-05T21:00:23.872Z,85.76
2023-05-05T21:01:23.881Z,86.37
2023-05-05T21:02:23.883Z,86.57
2023-05-05T21:03:23.812Z,86.88
2023-05-05T21:04:23.789Z,87.29
2023-05-05T21:05:23.807Z,85.09
2023-05-05T21:06:23.791Z,82.40
2023-05-05T21:07:23.824Z,85.46
2023-05-05T21:08:23.783Z,84.13
2023-05-05T21:09:23.796Z,83.73
2023-05-05T21:10:23.804Z,83.53
2023-05-05T21:11:23.737Z,84.54
2023-05-05T21:12:23.836Z,85.25
2023-05-05T21:13:23.782Z,83.73
2023-05-05T21:14:23.796Z,85.05
2023-05-05T21:15:23.774Z,85.66
2023-05-05T21:16:23.790Z,85.25
2023-05-05T21:17:23.733Z,85.66
2023-05-05T21:18:23.682Z,86.51
2023-05-05T21:19:23.687Z,85.09
2023-05-05T21:20:23.665Z,86.21
2023-05-05T21:21:23.653Z,87.12
2023-05-05T21:22:23.670Z,85.70
2023-05-05T21:23:23.723Z,87.93
2023-05-05T21:24:23.658Z,84.78
2023-05-05T21:25:23.645Z,84.58
2023-05-05T21:26:23.713Z,82.14
2023-05-05T21:27:23.630Z,87.02
2023-05-05T21:28:23.683Z,85.80
2023-05-05T21:29:23.585Z,84.84
2023-05-05T21:30:23.642Z,86.92
2023-05-05T21:31:23.587Z,87.23
2023-05-05T21:32:23.831Z,87.16
2023-05-05T21:33:23.635Z,87.67
2023-05-05T21:34:24.618Z,87.92
2023-05-05T21:35:23.626Z,88.73
2023-05-05T21:36:23.599Z,88.98
2023-05-05T21:37:23.591Z,89.18
2023-05-05T21:38:23.561Z,89.48
2023-05-05T21:39:23.600Z,88.87
2023-05-05T21:40:23.578Z,89.07
2023-05-05T21:41:23.563Z,89.48
2023-05-05T21:42:23.545Z,88.92
2023-05-05T21:43:23.494Z,87.35
2023-05-05T21:44:23.569Z,86.80
2023-05-05T21:45:23.544Z,86.90
2023-05-05T21:46:23.616Z,87.16
2023-05-05T21:47:23.596Z,88.02
2023-05-05T21:48:23.475Z,87.71
2023-05-05T21:49:23.515Z,87.75
2023-05-05T21:50:23.488Z,87.96
2023-05-05T21:51:23.465Z,87.85
2023-05-05T21:52:23.425Z,85.06
2023-05-05T21:53:23.469Z,83.91
2023-05-05T21:54:23.447Z,81.73
2023-05-05T21:55:23.405Z,81.39
2023-05-05T21:56:23.447Z,80.03
2023-05-05T21:57:23.459Z,79.83
2023-05-05T21:58:23.390Z,80.40
2023-05-05T21:59:23.387Z,81.62
2023-05-05T22:00:23.417Z,83.38
2023-05-05T22:01:23.467Z,84.99
2023-05-05T22:02:23.477Z,87.55
2023-05-05T22:03:23.470Z,89.73
2023-05-05T22:04:23.357Z,90.63
2023-05-05T22:05:23.376Z,90.59
2023-05-05T22:06:23.391Z,87.38
2023-05-05T22:07:23.343Z,85.41
2023-05-05T22:08:23.322Z,84.56
2023-05-05T22:09:23.303Z,85.23
2023-05-05T22:10:23.323Z,83.60
2023-05-05T22:11:23.296Z,85.84
2023-05-05T22:12:23.403Z,86.55
2023-05-05T22:13:23.485Z,86.69
2023-05-05T22:14:23.274Z,87.41
2023-05-05T22:15:25.374Z,88.06
2023-05-05T22:16:23.421Z,89.53
2023-05-05T22:17:23.259Z,90.99
2023-05-05T22:18:23.252Z,90.79
2023-05-05T22:19:23.283Z,91.55
2023-05-05T22:20:23.294Z,91.30
2023-05-05T22:21:23.240Z,90.83
2023-05-05T22:22:23.233Z,90.59
2023-05-05T22:23:23.199Z,90.94
2023-05-05T22:24:23.224Z,91.09
2023-05-05T22:25:23.256Z,91.20
2023-05-05T22:26:23.235Z,90.48
2023-05-05T22:27:23.174Z,89.97
2023-05-05T22:28:23.195Z,89.83
2023-05-05T22:29:23.170Z,90.18
2023-05-05T22:30:23.183Z,90.99
2023-05-05T22:31:23.217Z,90.79
2023-05-05T22:32:23.183Z,90.48
2023-05-05T22:33:23.158Z,90.75
2023-05-05T22:34:23.140Z,90.99
2023-05-05T22:35:23.170Z,90.59
2023-05-05T22:36:23.122Z,91.20
2023-05-05T22:37:23.119Z,89.57
2023-05-05T22:38:23.156Z,89.57
2023-05-05T22:39:23.103Z,89.16
2023-05-05T22:40:23.096Z,89.01
2023-05-05T22:41:23.101Z,88.71
2023-05-05T22:42:23.099Z,88.00
2023-05-05T22:43:23.099Z,88.10
2023-05-05T22:44:23.052Z,86.94
2023-05-05T22:45:23.104Z,87.75
2023-05-05T22:46:23.100Z,89.12
2023-05-05T22:47:23.110Z,89.42
2023-05-05T22:48:23.040Z,90.85
2023-05-05T22:49:23.119Z,90.14
2023-05-05T22:50:22.995Z,89.42
2023-05-05T22:51:23.029Z,90.55
2023-05-05T22:52:23.053Z,88.10
2023-05-05T22:53:23.005Z,88.10
2023-05-05T22:54:23.012Z,87.96
2023-05-05T22:55:22.960Z,86.13
2023-05-05T22:56:22.994Z,87.24
2023-05-05T22:57:22.993Z,85.92
2023-05-05T22:58:22.922Z,86.33
2023-05-05T22:59:23.038Z,85.58
2023-05-05T23:00:22.953Z,82.82
2023-05-05T23:01:23.098Z,84.62
2023-05-05T23:02:22.965Z,85.94
2023-05-05T23:03:22.974Z,85.78
2023-05-05T23:04:22.927Z,84.25
2023-05-05T23:05:22.883Z,85.06
2023-05-05T23:06:22.965Z,83.84
2023-05-05T23:07:22.912Z,86.25
2023-05-05T23:08:22.855Z,84.15
2023-05-05T23:09:22.851Z,86.25
2023-05-05T23:10:22.874Z,85.37
2023-05-05T23:11:22.903Z,82.42
2023-05-05T23:12:22.854Z,86.04
2023-05-05T23:13:23.883Z,86.29
2023-05-05T23:14:22.821Z,87.24
2023-05-05T23:15:22.869Z,88.16
2023-05-05T23:16:22.896Z,88.20
2023-05-05T23:17:22.851Z,87.38
2023-05-05T23:18:22.813Z,87.38
2023-05-05T23:19:22.790Z,86.88
2023-05-05T23:20:22.779Z,87.18
2023-05-05T23:21:22.791Z,85.75
2023-05-05T23:22:22.803Z,85.00
2023-05-05T23:23:22.801Z,86.43
2023-05-05T23:24:22.789Z,85.92
2023-05-05T23:25:22.755Z,85.51
2023-05-05T23:26:22.805Z,83.95
2023-05-05T23:27:22.744Z,85.00
2023-05-05T23:28:22.756Z,84.70
2023-05-05T23:29:22.753Z,84.80
2023-05-05T23:30:22.746Z,85.11
2023-05-05T23:31:22.841Z,85.92
2023-05-05T23:32:22.684Z,87.38
2023-05-05T23:33:22.702Z,87.84
2023-05-05T23:34:22.695Z,88.45
2023-05-05T23:35:22.695Z,88.24
2023-05-05T23:36:22.676Z,88.45
2023-05-05T23:37:22.662Z,88.04
2023-05-05T23:38:22.691Z,88.55
2023-05-05T23:39:22.680Z,86.61
2023-05-05T23:40:22.662Z,86.16
2023-05-05T23:41:22.628Z,85.25
2023-05-05T23:42:22.625Z,85.21
2023-05-05T23:43:23.614Z,84.80
2023-05-05T23:44:22.625Z,83.23
2023-05-05T23:45:22.645Z,82.62
2023-05-05T23:46:22.683Z,82.52
2023-05-05T23:47:22.588Z,82.12
2023-05-05T23:48:22.666Z,81.87
2023-05-05T23:49:22.630Z,83.95
2023-05-05T23:50:23.587Z,83.03
2023-05-05T23:51:22.580Z,84.97
2023-05-05T23:52:22.563Z,85.06
2023-05-05T23:53:22.586Z,84.19
2023-05-05T23:54:22.531Z,82.56
2023-05-05T23:55:22.543Z,82.73
2023-05-05T23:56:22.499Z,84.70
2023-05-05T23:57:22.541Z,85.35
2023-05-05T23:58:22.496Z,86.98
2023-05-05T23:59:22.469Z,87.18
